Time;durP1;ratioP1;P1;durP2;ratioP2;P2;SDS_P1;SDS_P2;PMS_P1;PMS_P2;Temp;Humidity;BMP_temperature;BMP_pressure;BME280_temperature;BME280_humidity;BME280_pressure;Samples;Min_cycle;Max_cycle;Signal;HPM_P1;HPM_P2
2021/12/23 00:01:34;;;;;;;9.30;6.95;;;;;;;20.59;25.97;99756.81;5130795;27;20071;-54
2021/12/23 00:03:59;;;;;;;8.73;6.38;;;;;;;20.59;25.94;99759.59;5130443;27;20509;-53
2021/12/23 00:06:25;;;;;;;9.02;6.70;;;;;;;20.59;26.01;99759.59;5130751;27;20522;-52
2021/12/23 00:08:50;;;;;;;8.82;6.35;;;;;;;20.60;25.73;99761.19;5130761;28;20067;-53
2021/12/23 00:11:16;;;;;;;8.20;6.40;;;;;;;20.59;25.78;99757.59;5130483;28;20043;-70
2021/12/23 00:13:50;;;;;;;9.30;6.50;;;;;;;20.61;25.88;99751.69;5130549;28;20047;-70
2021/12/23 00:16:29;;;;;;;9.45;7.03;;;;;;;20.58;25.89;99753.22;5130575;27;20141;-49
2021/12/23 00:19:00;;;;;;;8.60;6.30;;;;;;;20.61;25.78;99748.91;5127513;28;20588;-52
2021/12/23 00:24:10;;;;;;;9.90;7.50;;;;;;;20.60;25.85;99750.88;5130449;28;20131;-71
2021/12/23 00:26:35;;;;;;;9.20;6.93;;;;;;;20.61;25.79;99741.34;5130250;28;20517;-70
2021/12/23 00:29:01;;;;;;;8.73;6.95;;;;;;;20.56;25.93;99733.31;5130310;28;21315;-70
2021/12/23 00:31:26;;;;;;;10.40;7.45;;;;;;;20.62;25.88;99736.59;5130252;28;20043;-70
2021/12/23 00:33:52;;;;;;;10.48;7.47;;;;;;;20.61;25.94;99733.03;5130180;27;20421;-70
2021/12/23 00:36:17;;;;;;;10.45;7.20;;;;;;;20.60;25.92;99734.19;5131664;27;20448;-70
2021/12/23 00:38:51;;;;;;;9.68;7.07;;;;;;;20.59;25.74;99737.34;5133953;27;20051;-70
2021/12/23 00:41:19;;;;;;;10.25;7.43;;;;;;;20.61;25.94;99746.13;5133948;27;20502;-70
2021/12/23 00:43:45;;;;;;;9.38;6.82;;;;;;;20.61;25.76;99746.13;5133948;27;20130;-71
2021/12/23 00:46:11;;;;;;;10.57;7.72;;;;;;;20.61;25.78;99743.34;5133805;27;20476;-71
2021/12/23 00:48:39;;;;;;;10.02;7.30;;;;;;;20.57;25.93;99739.66;5133775;28;20503;-51
2021/12/23 00:51:04;;;;;;;11.32;7.47;;;;;;;20.60;25.82;99747.28;5133721;27;20047;-70
2021/12/23 00:53:36;;;;;;;11.23;7.40;;;;;;;20.59;25.77;99746.50;5133466;27;20537;-70
2021/12/23 00:56:02;;;;;;;9.75;6.78;;;;;;;20.59;25.68;99759.59;5133546;27;20039;-70
2021/12/23 00:58:28;;;;;;;9.75;7.25;;;;;;;20.55;25.78;99753.13;5133804;27;20055;-70
2021/12/23 01:00:54;;;;;;;9.93;6.97;;;;;;;20.54;25.83;99751.53;5133609;28;20055;-70
2021/12/23 01:03:19;;;;;;;10.02;6.80;;;;;;;20.55;25.76;99758.69;5133503;27;20072;-71
2021/12/23 01:05:45;;;;;;;10.20;7.07;;;;;;;20.53;25.63;99749.91;5133564;27;20081;-70
2021/12/23 01:08:11;;;;;;;9.65;7.53;;;;;;;20.51;25.86;99753.06;5133202;28;20422;-49
2021/12/23 01:10:36;;;;;;;8.95;6.82;;;;;;;20.53;25.71;99753.50;5133243;27;20070;-52
2021/12/23 01:13:04;;;;;;;10.00;7.35;;;;;;;20.53;25.87;99755.47;5133576;27;20522;-49
2021/12/23 01:18:13;;;;;;;9.73;7.47;;;;;;;20.52;25.80;99754.69;5133350;27;20042;-52
2021/12/23 01:21:02;;;;;;;10.63;6.93;;;;;;;20.50;25.94;99757.03;5133340;27;20095;-53
2021/12/23 01:23:28;;;;;;;9.82;7.05;;;;;;;20.49;25.74;99755.38;5133288;27;20507;-52
2021/12/23 01:25:54;;;;;;;8.48;6.60;;;;;;;20.49;25.91;99749.03;5133292;27;20130;-52
2021/12/23 01:28:20;;;;;;;9.05;6.43;;;;;;;20.47;25.77;99743.84;5133013;28;20039;-51
2021/12/23 01:30:46;;;;;;;9.07;6.57;;;;;;;20.48;25.79;99742.66;5133255;27;20530;-70
2021/12/23 01:33:12;;;;;;;8.98;6.70;;;;;;;20.49;25.93;99743.47;5133033;27;20043;-70
2021/12/23 01:35:39;;;;;;;8.40;6.38;;;;;;;20.49;25.90;99744.28;5133210;27;20039;-71
2021/12/23 01:38:05;;;;;;;10.00;6.72;;;;;;;20.49;25.81;99752.59;5133306;27;20529;-71
2021/12/23 01:40:31;;;;;;;7.63;5.82;;;;;;;20.47;25.82;99751.38;5133153;27;20047;-71
2021/12/23 01:42:58;;;;;;;8.95;6.28;;;;;;;20.48;25.80;99756.56;5133087;27;20109;-71
2021/12/23 01:45:27;;;;;;;9.48;6.47;;;;;;;20.50;25.81;99757.03;5132659;27;20043;-70
2021/12/23 01:47:53;;;;;;;9.10;6.53;;;;;;;20.51;25.84;99763.38;5132576;27;20050;-71
2021/12/23 01:50:27;;;;;;;7.70;5.78;;;;;;;20.51;25.71;99753.06;5132748;27;20558;-70
2021/12/23 01:52:58;;;;;;;8.20;6.10;;;;;;;20.52;25.71;99759.44;5132804;27;20039;-70
2021/12/23 01:55:24;;;;;;;8.60;6.63;;;;;;;20.52;25.75;99754.69;5132737;27;20043;-70
2021/12/23 01:57:50;;;;;;;8.88;5.95;;;;;;;20.53;25.85;99755.47;5132622;27;20047;-54
2021/12/23 02:00:19;;;;;;;8.27;6.22;;;;;;;20.53;25.81;99755.47;5132746;27;20035;-51
2021/12/23 02:02:44;;;;;;;9.25;6.50;;;;;;;20.55;25.67;99747.56;5132647;27;20047;-54
2021/12/23 02:05:11;;;;;;;8.70;6.13;;;;;;;20.55;25.76;99742.00;5132569;28;20134;-51
2021/12/23 02:07:37;;;;;;;8.45;5.82;;;;;;;20.53;25.58;99750.72;5132579;27;20115;-54
2021/12/23 02:10:05;;;;;;;8.32;6.20;;;;;;;20.55;25.69;99750.34;5132650;28;20465;-51
2021/12/23 02:12:30;;;;;;;8.65;5.93;;;;;;;20.56;25.64;99738.06;5132640;27;20046;-53
2021/12/23 02:14:56;;;;;;;8.98;6.55;;;;;;;20.56;25.60;99747.19;5132459;27;20047;-54
2021/12/23 02:17:22;;;;;;;8.20;6.00;;;;;;;20.57;25.65;99743.28;5132604;27;20043;-70
2021/12/23 02:19:54;;;;;;;8.00;5.68;;;;;;;20.57;25.58;99734.94;5132417;27;20047;-70
2021/12/23 02:22:19;;;;;;;9.05;6.20;;;;;;;20.56;25.70;99743.63;5138813;27;20035;-70
2021/12/23 02:24:44;;;;;;;7.75;5.45;;;;;;;20.55;25.68;99733.69;5139066;27;20090;-70
2021/12/23 02:27:11;;;;;;;7.35;5.47;;;;;;;20.54;25.69;99735.66;5138148;28;20138;-70
2021/12/23 02:29:36;;;;;;;7.55;5.57;;;;;;;20.54;25.65;99729.28;5132483;27;20048;-71
2021/12/23 02:32:02;;;;;;;7.72;5.47;;;;;;;20.51;25.69;99730.03;5132187;27;20059;-70
2021/12/23 02:34:27;;;;;;;8.15;6.00;;;;;;;20.52;25.73;99723.31;5132411;27;20050;-70
2021/12/23 02:36:56;;;;;;;8.10;5.95;;;;;;;20.55;25.76;99719.78;5132217;28;20047;-70
2021/12/23 02:39:23;;;;;;;8.07;6.00;;;;;;;20.55;25.72;99717.00;5132048;27;20122;-70
2021/12/23 02:41:49;;;;;;;9.23;6.60;;;;;;;20.55;25.70;99722.56;5132135;27;20126;-69
2021/12/23 02:44:15;;;;;;;9.20;6.07;;;;;;;20.55;25.71;99717.00;5131910;28;20110;-71
2021/12/23 02:46:41;;;;;;;9.07;6.10;;;;;;;20.55;25.77;99709.47;5132155;27;20047;-70
2021/12/23 02:49:07;;;;;;;8.43;6.10;;;;;;;20.54;25.54;99707.06;5132077;27;20407;-71
2021/12/23 02:51:32;;;;;;;8.90;6.38;;;;;;;20.54;25.59;99702.31;5131968;27;20066;-71
2021/12/23 02:53:58;;;;;;;8.73;6.20;;;;;;;20.54;25.69;99693.16;5131977;27;20043;-70
2021/12/23 02:56:23;;;;;;;8.55;6.28;;;;;;;20.54;25.69;99698.72;5131711;27;20069;-70
2021/12/23 02:58:49;;;;;;;8.45;5.63;;;;;;;20.53;25.70;99702.69;5130915;27;20055;-71
2021/12/23 03:01:16;;;;;;;8.60;6.30;;;;;;;20.53;25.56;99697.13;5131687;28;20107;-70
2021/12/23 03:03:43;;;;;;;9.43;6.20;;;;;;;20.52;25.40;99684.41;5131740;27;20039;-52
2021/12/23 03:06:11;;;;;;;8.52;6.10;;;;;;;20.51;25.60;99668.91;5131736;27;20494;-53
2021/12/23 03:08:47;;;;;;;8.68;6.55;;;;;;;20.51;25.69;99671.69;5131536;27;20059;-53
2021/12/23 03:11:16;;;;;;;8.40;6.18;;;;;;;20.51;25.69;99668.91;5131667;27;20518;-71
2021/12/23 03:13:42;;;;;;;9.63;6.78;;;;;;;20.52;25.73;99670.50;5131834;27;20043;-71
2021/12/23 03:16:09;;;;;;;9.20;6.38;;;;;;;20.52;25.69;99659.41;5131451;27;20047;-70
2021/12/23 03:18:35;;;;;;;9.38;6.65;;;;;;;20.52;25.49;99659.41;5131351;27;20047;-71
2021/12/23 03:21:03;;;;;;;9.77;6.20;;;;;;;20.52;25.61;99654.63;5131596;27;20043;-71
2021/12/23 03:23:28;;;;;;;9.05;6.50;;;;;;;20.50;25.70;99642.25;5131656;27;20442;-70
2021/12/23 03:25:54;;;;;;;8.95;6.72;;;;;;;20.49;25.45;99643.44;5131302;28;20486;-70
2021/12/23 03:28:20;;;;;;;9.30;6.43;;;;;;;20.53;25.61;99644.31;5131316;27;20514;-70
2021/12/23 03:30:46;;;;;;;9.30;6.40;;;;;;;20.53;25.64;99641.53;5131215;27;20398;-71
2021/12/23 03:33:11;;;;;;;9.10;6.00;;;;;;;20.53;25.57;99638.75;5131255;27;20043;-51
2021/12/23 03:35:37;;;;;;;9.55;6.57;;;;;;;20.52;25.38;99634.38;5131060;28;20456;-53
2021/12/23 03:38:03;;;;;;;8.73;6.30;;;;;;;20.48;25.66;99630.72;5131237;27;20085;-50
2021/12/23 03:40:29;;;;;;;8.75;5.88;;;;;;;20.51;25.43;99635.56;5131150;27;20847;-52
2021/12/23 03:42:54;;;;;;;8.02;5.68;;;;;;;20.50;25.64;99633.94;5130913;27;20542;-53
2021/12/23 03:45:20;;;;;;;7.88;5.70;;;;;;;20.46;25.64;99619.19;5131155;27;20039;-53
2021/12/23 03:47:48;;;;;;;7.45;5.85;;;;;;;20.51;25.57;99625.25;5131080;27;20042;-49
2021/12/23 03:50:17;;;;;;;8.27;5.78;;;;;;;20.51;25.55;99613.31;5130700;27;20073;-71
2021/12/23 03:52:43;;;;;;;8.80;6.25;;;;;;;20.50;25.54;99612.53;5130854;27;20039;-70
2021/12/23 03:55:10;;;;;;;9.13;6.35;;;;;;;20.51;25.64;99616.09;5130634;27;20047;-70
2021/12/23 03:57:35;;;;;;;7.72;5.78;;;;;;;20.49;25.44;99613.69;5130890;27;20043;-71
2021/12/23 04:00:01;;;;;;;9.48;6.13;;;;;;;20.50;25.64;99620.03;5130695;27;20451;-70
2021/12/23 04:02:27;;;;;;;8.15;5.95;;;;;;;20.48;25.36;99617.63;5130765;27;20047;-70
2021/12/23 04:04:52;;;;;;;8.30;5.93;;;;;;;20.46;25.53;99614.41;5130846;27;20039;-50
2021/12/23 04:07:17;;;;;;;8.23;6.15;;;;;;;20.49;25.47;99610.09;5130743;28;20047;-53
2021/12/23 04:09:43;;;;;;;8.43;5.93;;;;;;;20.47;25.63;99610.47;5130627;27;20047;-50
2021/12/23 04:12:09;;;;;;;8.00;5.80;;;;;;;20.47;25.51;99609.66;5130692;28;20130;-52
2021/12/23 04:14:34;;;;;;;8.50;6.00;;;;;;;20.49;25.47;99610.09;5130687;27;20047;-52
2021/12/23 04:17:00;;;;;;;7.65;5.45;;;;;;;20.49;25.50;99610.09;5130681;27;20363;-52
2021/12/23 04:19:29;;;;;;;8.38;5.90;;;;;;;20.51;25.54;99607.78;5130447;28;20403;-52
2021/12/23 04:21:54;;;;;;;8.07;5.55;;;;;;;20.47;25.53;99602.13;5130575;27;20137;-51
2021/12/23 04:24:19;;;;;;;9.75;6.40;;;;;;;20.48;25.67;99609.28;5130488;27;20168;-53
2021/12/23 04:26:45;;;;;;;10.27;5.90;;;;;;;20.48;25.32;99602.94;5130415;28;20047;-53
2021/12/23 04:29:10;;;;;;;9.05;6.57;;;;;;;20.48;25.49;99603.72;5130254;28;20096;-53
2021/12/23 04:31:36;;;;;;;9.88;5.68;;;;;;;20.47;25.62;99601.34;5130364;27;20112;-52
2021/12/23 04:34:01;;;;;;;9.15;5.80;;;;;;;20.46;25.47;99600.53;5130210;27;20043;-51
2021/12/23 04:36:29;;;;;;;9.02;5.68;;;;;;;20.45;25.41;99598.94;5130268;27;20043;-52
2021/12/23 04:38:55;;;;;;;8.13;5.80;;;;;;;20.46;25.50;99608.06;5130423;27;20044;-51
2021/12/23 04:41:21;;;;;;;8.32;5.53;;;;;;;20.46;25.47;99605.28;5130255;27;20039;-71
2021/12/23 04:43:47;;;;;;;6.43;5.00;;;;;;;20.45;25.62;99598.13;5130179;27;20059;-70
2021/12/23 04:46:12;;;;;;;8.05;5.40;;;;;;;20.45;25.51;99609.25;5130078;27;20495;-70
2021/12/23 04:48:38;;;;;;;7.13;5.25;;;;;;;20.45;25.46;99598.94;5130196;27;20043;-70
2021/12/23 04:51:04;;;;;;;7.68;5.80;;;;;;;20.46;25.47;99594.97;5130069;27;20043;-70
2021/12/23 04:53:29;;;;;;;6.72;4.95;;;;;;;20.47;25.47;99607.69;5129978;27;20447;-70
2021/12/23 04:55:55;;;;;;;7.07;5.28;;;;;;;20.46;25.54;99600.53;5129972;28;20035;-70
2021/12/23 04:58:20;;;;;;;7.07;5.32;;;;;;;20.46;25.60;99600.53;5130119;27;20054;-71
2021/12/23 05:00:48;;;;;;;7.78;5.40;;;;;;;20.47;25.49;99602.13;5129483;27;20071;-51
2021/12/23 05:03:22;;;;;;;5.50;4.38;;;;;;;20.48;25.51;99606.50;5128517;28;20096;-52
2021/12/23 05:05:48;;;;;;;7.20;5.15;;;;;;;20.48;25.46;99602.94;5129914;27;20118;-50
2021/12/23 05:08:15;;;;;;;6.85;5.00;;;;;;;20.48;25.61;99605.72;5129972;28;20122;-52
2021/12/23 05:10:41;;;;;;;6.90;5.20;;;;;;;20.45;25.80;99595.34;5129702;27;20035;-70
2021/12/23 05:13:06;;;;;;;6.63;4.53;;;;;;;20.47;25.54;99604.09;5130043;27;20044;-71
2021/12/23 05:15:32;;;;;;;6.35;4.63;;;;;;;20.48;25.79;99602.94;5129780;28;20077;-54
2021/12/23 05:17:58;;;;;;;6.00;4.40;;;;;;;20.49;25.49;99610.09;5129949;27;20490;-51
2021/12/23 05:20:24;;;;;;;6.88;5.05;;;;;;;20.48;25.82;99609.28;5129810;27;20131;-70
2021/12/23 05:22:49;;;;;;;6.60;4.50;;;;;;;20.48;25.71;99623.19;5131645;27;20077;-69
2021/12/23 05:25:16;;;;;;;7.20;4.90;;;;;;;20.48;25.72;99625.97;5133098;28;20425;-70
2021/12/23 05:27:43;;;;;;;7.68;4.57;;;;;;;20.47;25.85;99620.78;5133297;27;20059;-70
2021/12/23 05:30:12;;;;;;;6.82;5.00;;;;;;;20.49;25.84;99627.56;5133368;27;20043;-71
2021/12/23 05:32:38;;;;;;;6.95;4.80;;;;;;;20.50;25.82;99629.19;5128717;27;20142;-70
2021/12/23 05:35:05;;;;;;;7.55;4.80;;;;;;;20.49;25.84;99621.22;5112421;28;20130;-52
2021/12/23 05:37:31;;;;;;;6.85;4.60;;;;;;;20.49;25.70;99632.31;5112840;28;20070;-54
2021/12/23 05:39:56;;;;;;;6.47;4.63;;;;;;;20.51;26.00;99635.56;5112453;28;20425;-52
2021/12/23 05:42:22;;;;;;;6.57;4.50;;;;;;;20.51;25.82;99646.66;5112383;28;20054;-50
2021/12/23 05:44:47;;;;;;;6.80;4.90;;;;;;;20.48;25.73;99637.06;5112273;28;20051;-50
2021/12/23 05:47:13;;;;;;;6.22;4.50;;;;;;;20.48;26.01;99637.06;5111261;28;20465;-52
2021/12/23 05:49:38;;;;;;;6.38;4.68;;;;;;;20.48;25.98;99652.94;5112344;28;20044;-49
2021/12/23 05:52:04;;;;;;;6.10;4.60;;;;;;;20.46;26.05;99646.97;5112002;28;20448;-53
2021/12/23 05:54:29;;;;;;;6.50;4.53;;;;;;;20.48;25.97;99658.50;5112221;28;20365;-51
2021/12/23 05:57:01;;;;;;;5.78;4.22;;;;;;;20.50;26.07;99668.09;5112152;28;20175;-52
2021/12/23 05:59:27;;;;;;;7.17;5.00;;;;;;;20.48;25.98;99658.50;5112274;28;20061;-52
2021/12/23 06:01:52;;;;;;;6.07;4.72;;;;;;;20.52;26.02;99665.75;5112216;28;20047;-51
2021/12/23 06:04:18;;;;;;;7.18;4.97;;;;;;;20.52;25.88;99676.88;5112093;28;20102;-71
2021/12/23 06:06:43;;;;;;;6.53;4.57;;;;;;;20.53;25.91;99674.88;5111938;28;20407;-71
2021/12/23 06:09:09;;;;;;;6.25;4.53;;;;;;;20.50;26.00;99675.59;5112109;28;20047;-71
2021/12/23 06:11:34;;;;;;;7.38;5.13;;;;;;;20.54;25.98;99673.72;5111817;28;20172;-71
2021/12/23 06:13:59;;;;;;;6.97;4.85;;;;;;;20.55;25.96;99675.31;5112167;28;20184;-71
2021/12/23 06:16:25;;;;;;;5.47;4.25;;;;;;;20.55;25.90;99676.13;5111884;28;20048;-71
2021/12/23 06:18:50;;;;;;;6.60;4.53;;;;;;;20.55;25.88;99675.31;5111764;28;20104;-71
2021/12/23 06:21:16;;;;;;;6.05;4.53;;;;;;;20.54;25.90;99668.16;5111715;28;20048;-71
2021/12/23 06:23:41;;;;;;;8.40;4.47;;;;;;;20.56;25.95;99672.16;5111873;28;20110;-71
2021/12/23 06:26:06;;;;;;;7.00;5.00;;;;;;;20.58;26.04;99677.38;5111516;28;20392;-71
2021/12/23 06:28:32;;;;;;;6.28;4.68;;;;;;;20.55;25.92;99664.19;5111395;28;20051;-71
2021/12/23 06:30:57;;;;;;;6.15;4.40;;;;;;;20.58;25.88;99666.25;5111719;28;20036;-70
2021/12/23 06:33:23;;;;;;;6.30;4.68;;;;;;;20.57;26.05;99676.56;5110243;28;20040;-71
2021/12/23 06:35:48;;;;;;;6.15;4.65;;;;;;;20.58;25.87;99680.97;5111511;28;20040;-52
2021/12/23 06:38:14;;;;;;;6.80;4.82;;;;;;;20.57;26.08;99673.81;5111390;28;20059;-50
2021/12/23 06:40:41;;;;;;;6.35;4.50;;;;;;;20.58;26.15;99677.38;5111295;28;20047;-67
2021/12/23 06:43:06;;;;;;;10.63;4.70;;;;;;;20.64;26.33;99678.66;5111165;28;20434;-70
2021/12/23 06:45:32;;;;;;;8.32;4.47;;;;;;;20.65;26.24;99668.38;5111560;28;20512;-71
2021/12/23 06:47:57;;;;;;;7.50;4.72;;;;;;;20.65;26.24;99668.38;5111412;28;20070;-71
2021/12/23 06:50:24;;;;;;;10.07;5.20;;;;;;;20.63;25.95;99671.50;5111051;28;20134;-71
2021/12/23 06:52:50;;;;;;;9.60;4.97;;;;;;;20.65;26.16;99674.75;5111288;28;20039;-56
2021/12/23 06:55:17;;;;;;;5.93;4.15;;;;;;;20.65;25.99;99665.59;5111206;28;20043;-54
2021/12/23 06:57:43;;;;;;;5.55;4.18;;;;;;;20.63;26.03;99665.16;5111195;28;20092;-55
2021/12/23 07:00:14;;;;;;;6.88;4.78;;;;;;;20.62;25.96;99661.56;5110970;28;20051;-56
2021/12/23 07:02:41;;;;;;;9.43;4.95;;;;;;;20.62;25.93;99658.78;5110993;28;20040;-56
2021/12/23 07:05:08;;;;;;;14.38;4.97;;;;;;;20.59;26.09;99656.75;5110972;28;20119;-55
2021/12/23 07:07:41;;;;;;;6.70;4.85;;;;;;;20.59;26.19;99656.75;5111114;28;20039;-56
2021/12/23 07:10:10;;;;;;;7.00;4.07;;;;;;;20.60;25.92;99666.69;5111038;28;20132;-56
2021/12/23 07:12:36;;;;;;;5.68;3.63;;;;;;;20.60;25.97;99666.69;5110942;28;20135;-54
2021/12/23 07:15:01;;;;;;;5.10;3.92;;;;;;;20.58;26.13;99661.50;5110978;28;20065;-55
2021/12/23 07:17:27;;;;;;;7.35;4.13;;;;;;;20.59;25.97;99660.34;5110894;28;20123;-55
2021/12/23 07:19:52;;;;;;;5.80;3.90;;;;;;;20.59;25.99;99657.56;5110874;28;20055;-55
2021/12/23 07:22:19;;;;;;;4.93;3.40;;;;;;;20.61;26.09;99657.97;5111052;28;20055;-55
2021/12/23 07:24:44;;;;;;;5.00;3.78;;;;;;;20.62;25.94;99669.91;5110739;28;20043;-55
2021/12/23 07:27:09;;;;;;;5.22;3.55;;;;;;;20.63;26.18;99654.03;5110952;28;20135;-55
2021/12/23 07:29:36;;;;;;;7.63;3.38;;;;;;;20.64;25.82;99658.41;5110876;28;20414;-71
2021/12/23 07:32:03;;;;;;;5.60;3.72;;;;;;;20.63;25.90;99654.81;5110492;28;20045;-70
2021/12/23 07:34:30;;;;;;;5.05;3.45;;;;;;;20.62;25.92;99656.00;5110525;28;20515;-70
2021/12/23 07:36:56;;;;;;;4.63;3.30;;;;;;;20.66;25.99;99658.88;5110748;28;20056;-70
2021/12/23 07:39:22;;;;;;;6.57;3.08;;;;;;;20.66;25.84;99653.31;5110399;28;20044;-71
2021/12/23 07:41:48;;;;;;;5.32;2.90;;;;;;;20.64;25.91;99653.66;5110521;28;20380;-71
2021/12/23 07:44:20;;;;;;;5.53;3.17;;;;;;;20.66;25.94;99659.66;5110041;28;20082;-55
2021/12/23 07:46:46;;;;;;;4.07;2.75;;;;;;;20.67;25.94;99666.03;5109052;28;20043;-56
2021/12/23 07:49:12;;;;;;;3.78;2.63;;;;;;;20.67;25.92;99669.63;5110208;28;20035;-70
2021/12/23 07:51:38;;;;;;;4.25;2.63;;;;;;;20.65;26.10;99663.63;5110285;28;20144;-70
2021/12/23 07:54:04;;;;;;;3.85;2.70;;;;;;;20.66;25.92;99665.22;5110463;28;20039;-55
2021/12/23 07:56:29;;;;;;;3.50;2.45;;;;;;;20.68;26.08;99667.63;5110404;28;20055;-55
2021/12/23 07:58:54;;;;;;;5.32;2.72;;;;;;;20.67;25.93;99669.63;5110290;28;20044;-55
2021/12/23 08:01:20;;;;;;;3.95;2.67;;;;;;;20.68;25.92;99671.22;5110405;28;20047;-71
2021/12/23 08:03:45;;;;;;;4.57;2.90;;;;;;;20.69;25.90;99674.78;5110234;28;20051;-69
2021/12/23 08:06:11;;;;;;;3.78;2.85;;;;;;;20.71;25.79;99676.03;5110308;28;20044;-55
2021/12/23 08:08:37;;;;;;;5.82;3.42;;;;;;;20.71;26.03;99664.09;5110026;28;20463;-55
2021/12/23 08:11:02;;;;;;;4.88;3.40;;;;;;;20.73;25.86;99667.34;5110022;28;20048;-54
2021/12/23 08:13:28;;;;;;;4.70;3.40;;;;;;;20.72;25.74;99669.31;5109856;28;20039;-55
2021/12/23 08:15:54;;;;;;;5.05;3.58;;;;;;;20.72;25.73;99669.31;5110078;28;20105;-54
2021/12/23 08:18:19;;;;;;;5.38;3.97;;;;;;;20.72;25.87;99677.66;5109994;28;20107;-53
2021/12/23 08:20:45;;;;;;;4.93;3.67;;;;;;;20.73;25.89;99672.91;5110048;28;20079;-55
2021/12/23 08:23:10;;;;;;;5.53;3.83;;;;;;;20.70;25.83;99665.28;5110123;28;20039;-54
2021/12/23 08:25:36;;;;;;;5.28;4.13;;;;;;;20.74;25.79;99674.50;5109882;28;20418;-55
2021/12/23 08:28:01;;;;;;;5.10;3.90;;;;;;;20.75;25.93;99682.47;5109786;28;20040;-56
2021/12/23 08:30:27;;;;;;;5.82;4.15;;;;;;;20.71;25.71;99670.47;5109774;28;20465;-54
2021/12/23 08:32:52;;;;;;;6.20;4.22;;;;;;;20.75;25.79;99671.34;5109776;28;20520;-53
2021/12/23 08:35:19;;;;;;;5.32;3.90;;;;;;;20.71;25.81;99664.09;5109775;28;20377;-55
2021/12/23 08:37:47;;;;;;;5.63;4.03;;;;;;;20.74;25.84;99666.16;5109823;28;20055;-56
2021/12/23 08:40:20;;;;;;;5.32;3.72;;;;;;;20.75;25.71;99667.78;5109716;28;20071;-55
2021/12/23 08:42:47;;;;;;;7.55;4.18;;;;;;;20.75;25.64;99662.22;5109729;28;20070;-53
2021/12/23 08:45:13;;;;;;;5.90;4.10;;;;;;;20.73;25.67;99651.47;5109688;28;20126;-55
2021/12/23 08:47:38;;;;;;;5.15;3.95;;;;;;;20.72;25.90;99652.66;5093005;28;20039;-55
2021/12/23 08:50:08;;;;;;;5.30;3.60;;;;;;;20.73;25.76;99662.59;5108539;28;20088;-54
2021/12/23 08:52:34;;;;;;;5.38;3.92;;;;;;;20.73;25.85;99659.81;5109326;28;20047;-56
2021/12/23 08:54:59;;;;;;;5.25;3.83;;;;;;;20.74;25.82;99657.81;5109541;28;20055;-54
2021/12/23 08:57:25;;;;;;;4.60;3.60;;;;;;;20.72;25.87;99662.97;5110336;28;20043;-56
2021/12/23 08:59:50;;;;;;;5.63;4.15;;;;;;;20.74;25.78;99672.53;5109633;28;20456;-55
2021/12/23 09:02:16;;;;;;;5.90;4.20;;;;;;;20.74;25.95;99664.19;5112907;28;20051;-56
2021/12/23 09:04:42;;;;;;;5.43;4.07;;;;;;;20.73;25.76;99670.94;5112974;28;20534;-56
2021/12/23 09:07:08;;;;;;;6.72;4.70;;;;;;;20.75;25.66;99673.34;5107522;28;20071;-56
2021/12/23 09:09:35;;;;;;;5.55;4.00;;;;;;;20.74;25.94;99677.28;5098367;28;20051;-70
2021/12/23 09:12:02;;;;;;;6.65;4.43;;;;;;;20.76;25.78;99681.28;5101776;28;20028;-56
2021/12/23 09:14:28;;;;;;;6.10;4.03;;;;;;;20.77;25.62;99682.91;5102346;28;20071;-56
2021/12/23 09:16:54;;;;;;;5.65;4.15;;;;;;;20.76;25.98;99677.72;5102375;28;20117;-70
2021/12/23 09:19:19;;;;;;;6.07;4.30;;;;;;;20.75;25.79;99676.91;5100467;28;20059;-71
2021/12/23 09:21:44;;;;;;;6.38;4.47;;;;;;;20.77;25.83;99676.53;5102620;28;20109;-70
2021/12/23 09:24:10;;;;;;;6.07;4.57;;;;;;;20.74;25.83;99669.75;5101140;28;20040;-69
2021/12/23 09:26:46;;;;;;;6.50;4.53;;;;;;;20.75;25.58;99676.13;5101103;28;20035;-70
2021/12/23 09:29:18;;;;;;;6.00;4.50;;;;;;;20.75;25.88;99679.69;5103156;28;20047;-71
2021/12/23 09:34:28;;;;;;;5.85;4.47;;;;;;;20.76;25.78;99674.94;5100798;28;20415;-71
2021/12/23 09:36:53;;;;;;;5.63;4.30;;;;;;;20.75;25.71;99674.13;5099535;28;20430;-70
2021/12/23 09:39:20;;;;;;;6.53;4.63;;;;;;;20.77;25.78;99674.56;5100991;28;20047;-71
2021/12/23 09:41:47;;;;;;;6.63;4.80;;;;;;;20.79;25.87;99675.03;5100605;28;20051;-71
2021/12/23 09:44:14;;;;;;;6.50;4.88;;;;;;;20.80;25.66;99681.38;5095689;28;20043;-70
2021/12/23 09:46:40;;;;;;;6.82;4.80;;;;;;;20.81;25.74;99675.44;5100864;28;20035;-69
2021/12/23 09:49:06;;;;;;;6.47;4.57;;;;;;;20.82;25.87;99679.03;5101495;28;20225;-70
2021/12/23 09:51:34;;;;;;;6.93;4.82;;;;;;;20.82;25.66;99679.81;5100963;28;20055;-70
2021/12/23 09:54:04;;;;;;;6.50;4.78;;;;;;;20.84;25.77;99676.66;5099532;28;20043;-70
2021/12/23 09:56:31;;;;;;;5.97;4.60;;;;;;;20.85;25.59;99681.06;5099183;28;20423;-70
2021/12/23 09:58:58;;;;;;;6.00;4.55;;;;;;;20.86;25.79;99680.72;5100892;28;20515;-63
2021/12/23 10:01:29;;;;;;;6.60;4.40;;;;;;;20.87;25.61;99671.19;5099335;28;20036;-63
2021/12/23 10:03:55;;;;;;;5.53;4.13;;;;;;;20.93;25.57;99673.66;5096189;28;20044;-63
2021/12/23 10:06:23;;;;;;;5.75;4.40;;;;;;;20.96;25.53;99673.72;5102261;28;20031;-63
2021/12/23 10:08:49;;;;;;;6.63;4.45;;;;;;;20.98;25.55;99670.56;5107547;28;20068;-63
2021/12/23 10:30:28;;;;;;;6.32;4.50;;;;;;;21.15;25.35;99647.84;5095659;28;20077;-63
2021/12/23 10:33:29;;;;;;;6.03;4.57;;;;;;;21.14;25.44;99644.25;5095342;28;20081;-63
2021/12/23 10:38:42;;;;;;;6.35;4.78;;;;;;;21.18;25.54;99630.41;5101156;28;20474;-63
2021/12/23 10:41:10;;;;;;;;;;;;;;;21.19;25.37;99623.66;5103892;28;20511;-63
2021/12/23 10:43:41;;;;;;;7.05;4.90;;;;;;;21.16;25.54;99622.44;5096357;28;19999;-63
2021/12/23 10:46:11;;;;;;;6.85;4.95;;;;;;;21.17;25.38;99624.03;5089460;28;20052;-64
2021/12/23 10:48:47;;;;;;;7.32;5.00;;;;;;;21.19;25.53;99618.09;5096947;28;20522;-63
2021/12/23 10:51:17;;;;;;;6.90;4.80;;;;;;;21.22;25.61;99622.09;5097739;28;20043;-63
2021/12/23 10:59:18;;;;;;;6.10;4.43;;;;;;;21.25;25.37;99599.13;5100637;28;20127;-63
2021/12/23 11:02:12;;;;;;;6.15;4.68;;;;;;;21.26;25.57;99595.16;5101779;28;20449;-63
2021/12/23 11:04:50;;;;;;;7.32;5.32;;;;;;;21.27;25.55;99594.78;5098958;28;20083;-63
2021/12/23 11:07:23;;;;;;;5.72;4.28;;;;;;;21.26;25.53;99579.28;5099582;28;20529;-63
2021/12/23 11:10:26;;;;;;;6.47;5.05;;;;;;;21.29;25.62;99581.34;5103939;28;20055;-63
2021/12/23 11:38:48;;;;;;;5.63;4.15;;;;;;;21.30;25.30;99530.09;5098136;28;20058;-63
2021/12/23 11:43:52;;;;;;;5.78;4.38;;;;;;;21.31;25.28;99516.97;5098991;28;20074;-63
2021/12/23 11:46:23;;;;;;;6.38;4.25;;;;;;;21.29;25.41;99506.22;5097893;28;20104;-63
2021/12/23 11:48:52;;;;;;;5.88;4.30;;;;;;;21.30;25.54;99507.03;5100355;28;20048;-63
2021/12/23 11:51:29;;;;;;;5.72;4.47;;;;;;;21.31;25.52;99506.66;5097401;28;20503;-63
2021/12/23 11:53:54;;;;;;;6.63;4.70;;;;;;;21.31;25.38;99494.72;5100476;28;20097;-62
2021/12/23 11:56:21;;;;;;;5.72;4.10;;;;;;;21.29;25.53;99497.88;5099157;28;20400;-63
2021/12/23 11:58:48;;;;;;;5.63;4.20;;;;;;;21.28;25.66;99490.69;5098774;28;20031;-63
2021/12/23 12:01:24;;;;;;;5.57;4.03;;;;;;;21.29;25.47;99494.28;5099858;28;20032;-63
2021/12/23 12:03:58;;;;;;;5.47;4.25;;;;;;;21.27;25.53;99483.50;5100866;28;20040;-64
2021/12/23 12:06:30;;;;;;;6.40;4.20;;;;;;;21.26;25.51;99487.47;5098814;28;20036;-65
2021/12/23 12:09:13;;;;;;;6.03;4.57;;;;;;;21.26;25.65;99472.75;5098415;28;20043;-63
2021/12/23 12:11:40;;;;;;;6.25;4.35;;;;;;;21.25;25.80;99463.59;5098088;28;20455;-63
2021/12/23 12:14:40;;;;;;;5.78;4.38;;;;;;;21.23;25.58;99468.75;5099694;28;20044;-64
2021/12/23 12:17:24;;;;;;;5.57;4.10;;;;;;;21.25;25.67;99463.59;5095812;28;20040;-63
2021/12/23 12:19:52;;;;;;;5.57;4.13;;;;;;;21.23;25.80;99457.63;5100127;28;20036;-49
2021/12/23 12:22:52;;;;;;;5.40;4.25;;;;;;;21.24;25.85;99456.44;5092233;28;20090;-47
2021/12/23 12:25:23;;;;;;;5.25;3.97;;;;;;;21.23;25.74;99446.50;5095989;28;20056;-50
2021/12/23 12:27:55;;;;;;;6.05;4.13;;;;;;;21.23;25.93;99445.69;5091111;28;20656;-48
2021/12/23 12:30:34;;;;;;;5.07;3.65;;;;;;;21.23;25.98;99440.94;5090024;28;20495;-46
2021/12/23 12:33:02;;;;;;;6.07;3.80;;;;;;;21.26;26.00;99428.25;5098126;28;20417;-47
2021/12/23 12:35:31;;;;;;;5.25;3.70;;;;;;;21.24;25.90;99423.06;5100840;28;20048;-47
2021/12/23 12:38:11;;;;;;;4.93;3.60;;;;;;;21.27;25.74;99433.44;5099498;28;20431;-48
2021/12/23 12:41:00;;;;;;;5.47;3.78;;;;;;;21.28;25.73;99417.56;5105234;28;20423;-48